Time;durP1;ratioP1;P1;durP2;ratioP2;P2;SDS_P1;SDS_P2;PMS_P1;PMS_P2;Temp;Humidity;BMP_temperature;BMP_pressure;BME280_temperature;BME280_humidity;BME280_pressure;Samples;Min_cycle;Max_cycle;Signal;HPM_P1;HPM_P2
2023/11/01 00:00:30;;;;;;;;;2.33;2.33;;;;;17.88;100.00;100029.13;2045790;28;47881;-57
2023/11/01 00:01:30;;;;;;;;;2.00;2.00;;;;;17.91;100.00;100039.69;2046312;28;46671;-56
2023/11/01 00:02:31;;;;;;;;;1.67;1.67;;;;;17.91;100.00;100037.00;2066521;28;45770;-59
2023/11/01 00:03:32;;;;;;;;;3.00;3.00;;;;;17.91;100.00;100037.00;2062933;28;46390;-58
2023/11/01 00:04:32;;;;;;;;;4.67;3.00;;;;;17.92;100.00;100037.88;2062714;28;46338;-58
2023/11/01 00:05:33;;;;;;;;;4.00;4.00;;;;;17.93;100.00;100028.84;2062642;28;46661;-58
2023/11/01 00:06:33;;;;;;;;;2.33;1.00;;;;;17.93;100.00;100026.16;2063141;28;45520;-59
2023/11/01 00:07:34;;;;;;;;;3.33;2.00;;;;;17.93;100.00;100032.41;2062633;28;46640;-55
2023/11/01 00:08:34;;;;;;;;;2.33;1.67;;;;;17.93;100.00;100029.72;2087090;28;46260;-60
2023/11/01 00:09:35;;;;;;;;;2.00;0.00;;;;;17.94;100.00;100030.56;2087497;28;46764;-58
2023/11/01 00:10:35;;;;;;;;;3.00;2.67;;;;;17.95;100.00;100026.94;2095968;28;46488;-51
2023/11/01 00:11:35;;;;;;;;;4.00;1.00;;;;;17.93;100.00;100029.72;2087692;28;45646;-56
2023/11/01 00:12:36;;;;;;;;;2.33;2.00;;;;;17.94;100.00;100025.22;2087668;28;46293;-56
2023/11/01 00:13:36;;;;;;;;;3.33;2.67;;;;;17.94;100.00;100020.69;2087030;28;46347;-58
2023/11/01 00:14:36;;;;;;;;;3.33;2.33;;;;;17.94;100.00;100023.38;2087782;28;46015;-60
2023/11/01 00:15:37;;;;;;;;;1.00;1.00;;;;;17.93;100.00;100015.44;2095623;28;46351;-59
2023/11/01 00:16:37;;;;;;;;;4.67;3.67;;;;;17.92;100.00;100024.44;2095941;28;46320;-58
2023/11/01 00:17:38;;;;;;;;;2.00;2.00;;;;;17.92;100.00;100024.44;2095987;28;46076;-59
2023/11/01 00:18:38;;;;;;;;;6.00;3.33;;;;;17.90;100.00;100015.59;2087472;28;46500;-54
2023/11/01 00:19:38;;;;;;;;;1.33;1.33;;;;;17.88;100.00;100013.00;2087660;28;46213;-56
2023/11/01 00:20:39;;;;;;;;;4.33;2.00;;;;;17.87;100.00;100013.13;2095904;28;46564;-57
2023/11/01 00:21:39;;;;;;;;;3.00;3.00;;;;;17.83;100.00;100020.50;2095856;28;46674;-58
2023/11/01 00:22:40;;;;;;;;;2.00;2.00;;;;;17.80;100.00;100017.16;2095888;28;46487;-62
2023/11/01 00:23:40;;;;;;;;;2.00;2.00;;;;;17.79;100.00;100021.66;2095987;28;46065;-58
2023/11/01 00:24:40;;;;;;;;;2.00;2.00;;;;;17.80;100.00;100011.78;2070810;28;46273;-57
2023/11/01 00:25:41;;;;;;;;;3.00;3.00;;;;;17.79;100.00;100010.06;2070829;28;46714;-60
2023/11/01 00:26:41;;;;;;;;;2.00;2.00;;;;;17.78;100.00;100006.50;2096038;28;46312;-59
2023/11/01 00:27:41;;;;;;;;;3.67;2.00;;;;;17.79;100.00;100012.75;2095842;28;46440;-56
2023/11/01 00:28:41;;;;;;;;;4.00;4.00;;;;;17.78;100.00;100011.88;2095681;28;46254;-59
2023/11/01 00:29:42;;;;;;;;;2.67;2.33;;;;;17.79;100.00;100013.63;2095873;28;46608;-57
2023/11/01 00:30:42;;;;;;;;;3.00;2.00;;;;;17.78;100.00;100011.88;2096301;28;45710;-54
2023/11/01 00:31:43;;;;;;;;;3.00;3.00;;;;;17.79;100.00;100010.06;2095824;28;45854;-56
2023/11/01 00:32:43;;;;;;;;;2.33;0.67;;;;;17.81;100.00;100003.66;2095880;28;46319;-56
2023/11/01 00:33:43;;;;;;;;;2.00;2.00;;;;;17.82;100.00;100009.88;2087933;28;45903;-56
2023/11/01 00:34:44;;;;;;;;;4.33;2.33;;;;;17.83;100.00;100014.28;2078664;28;46747;-59
2023/11/01 00:35:44;;;;;;;;;2.00;2.00;;;;;17.83;100.00;100007.09;2079259;28;46446;-59
2023/11/01 00:36:44;;;;;;;;;2.00;2.00;;;;;17.83;100.00;99999.03;2079109;28;47161;-60
2023/11/01 00:37:45;;;;;;;;;2.33;1.33;;;;;17.83;100.00;100006.22;2087524;28;46106;-56
2023/11/01 00:38:45;;;;;;;;;3.00;2.33;;;;;17.84;100.00;100006.13;2078776;28;45217;-56
2023/11/01 00:39:45;;;;;;;;;2.00;2.00;;;;;17.84;100.00;100011.50;2072853;28;46212;-59
2023/11/01 00:40:46;;;;;;;;;2.67;1.67;;;;;17.84;100.00;100005.28;2061567;28;46159;-59
2023/11/01 00:41:46;;;;;;;;;1.00;1.00;;;;;17.84;100.00;100003.44;2062674;28;46359;-56
2023/11/01 00:42:46;;;;;;;;;1.33;1.33;;;;;17.81;100.00;99997.41;2062424;28;46193;-58
2023/11/01 00:43:47;;;;;;;;;1.67;1.67;;;;;17.83;100.00;100003.53;2062727;28;46581;-60
2023/11/01 00:44:47;;;;;;;;;1.33;0.00;;;;;17.83;100.00;100006.22;2062267;28;46277;-56
2023/11/01 00:45:47;;;;;;;;;3.33;3.00;;;;;17.82;100.00;99997.31;2054382;28;46290;-58
2023/11/01 00:46:48;;;;;;;;;1.33;1.00;;;;;17.82;100.00;100001.81;2058275;28;45993;-59
2023/11/01 00:47:48;;;;;;;;;2.67;1.67;;;;;17.82;100.00;99994.63;2062728;28;46734;-55
2023/11/01 00:48:49;;;;;;;;;5.33;3.00;;;;;17.81;100.00;99998.28;2062189;28;46619;-55
2023/11/01 00:49:49;;;;;;;;;2.33;2.33;;;;;17.81;100.00;99987.53;2062972;28;46717;-58
2023/11/01 00:50:49;;;;;;;;;4.00;3.00;;;;;17.83;100.00;99990.13;2062501;28;45746;-57
2023/11/01 00:51:50;;;;;;;;;2.00;2.00;;;;;17.79;100.00;99989.47;2057599;28;46655;-58
2023/11/01 00:52:50;;;;;;;;;2.33;1.67;;;;;17.81;100.00;99990.22;2070207;28;46638;-55
2023/11/01 00:53:50;;;;;;;;;1.67;1.00;;;;;17.81;100.00;99984.84;2069994;28;46759;-58
2023/11/01 00:54:51;;;;;;;;;2.00;2.00;;;;;17.80;100.00;99999.25;2054498;28;46285;-57
2023/11/01 00:55:51;;;;;;;;;2.67;2.67;;;;;17.77;100.00;99987.81;2054357;28;46704;-55
2023/11/01 00:56:51;;;;;;;;;3.00;2.00;;;;;17.75;100.00;99982.53;2054367;28;46719;-55
2023/11/01 00:57:52;;;;;;;;;3.67;3.33;;;;;17.76;100.00;99989.63;2054116;28;46245;-59
2023/11/01 00:58:52;;;;;;;;;4.67;3.00;;;;;17.77;100.00;99999.41;2054478;28;46878;-57
2023/11/01 00:59:52;;;;;;;;;2.33;2.33;;;;;17.78;100.00;99989.53;2054788;28;45621;-59
2023/11/01 01:00:53;;;;;;;;;2.67;2.67;;;;;17.77;100.00;99998.53;2054534;28;45961;-57
2023/11/01 01:01:53;;;;;;;;;1.67;1.67;;;;;17.75;100.00;100000.47;2054568;28;46348;-55
2023/11/01 01:02:53;;;;;;;;;1.00;1.00;;;;;17.75;100.00;99990.59;2054918;28;45450;-59
2023/11/01 01:03:54;;;;;;;;;1.00;1.00;;;;;17.72;100.00;99993.47;2054289;28;46337;-58
2023/11/01 01:04:54;;;;;;;;;3.00;1.33;;;;;17.70;100.00;99983.81;2059056;28;46930;-56
2023/11/01 01:05:54;;;;;;;;;2.33;1.33;;;;;17.68;100.00;99980.31;2061784;28;46872;-57
2023/11/01 01:06:55;;;;;;;;;3.67;1.00;;;;;17.69;100.00;99988.31;2053823;28;46965;-57
2023/11/01 01:07:56;;;;;;;;;2.00;2.00;;;;;17.70;100.00;99989.16;2061738;28;46171;-60
2023/11/01 01:08:56;;;;;;;;;3.00;3.00;;;;;17.70;100.00;99983.81;2062659;28;46352;-60
2023/11/01 01:09:57;;;;;;;;;3.33;2.00;;;;;17.69;100.00;99992.81;2062421;28;45581;-59
2023/11/01 01:10:57;;;;;;;;;2.00;1.00;;;;;17.70;100.00;99991.84;2062486;28;46262;-58
2023/11/01 01:11:57;;;;;;;;;2.67;2.67;;;;;17.69;100.00;99995.50;2061627;28;46196;-58
2023/11/01 01:12:58;;;;;;;;;2.00;2.00;;;;;17.69;100.00;99988.31;2053830;28;46713;-58
2023/11/01 01:13:58;;;;;;;;;3.33;1.00;;;;;17.71;100.00;99990.91;2061715;28;46017;-57
2023/11/01 01:14:58;;;;;;;;;4.00;3.00;;;;;17.72;100.00;99995.31;2063264;28;46308;-57
2023/11/01 01:15:59;;;;;;;;;1.33;1.33;;;;;17.72;100.00;99992.63;2063086;28;46612;-58
2023/11/01 01:16:59;;;;;;;;;3.00;1.00;;;;;17.73;100.00;99989.84;2060431;28;46293;-58
2023/11/01 01:17:59;;;;;;;;;4.33;1.67;;;;;17.75;100.00;99990.59;2055373;28;46791;-59
2023/11/01 01:19:00;;;;;;;;;1.33;1.33;;;;;17.75;100.00;99989.72;2061813;28;46561;-57
2023/11/01 01:20:00;;;;;;;;;2.00;2.00;;;;;17.76;100.00;99978.03;2063609;28;46297;-55
2023/11/01 01:21:01;;;;;;;;;2.00;1.33;;;;;17.74;100.00;99988.88;2063673;28;46502;-59
2023/11/01 01:22:01;;;;;;;;;3.00;3.00;;;;;17.72;100.00;99985.44;2063598;28;46226;-58
2023/11/01 01:23:02;;;;;;;;;2.33;1.00;;;;;17.73;100.00;99983.59;2063740;28;45972;-59
2023/11/01 01:24:02;;;;;;;;;2.00;2.00;;;;;17.73;100.00;99987.16;2063157;28;46374;-59
2023/11/01 01:25:03;;;;;;;;;2.00;2.00;;;;;17.75;100.00;99982.53;2063530;28;46295;-59
2023/11/01 01:26:04;;;;;;;;;2.67;2.00;;;;;17.76;100.00;99978.03;2063370;28;46620;-57
2023/11/01 01:27:04;;;;;;;;;2.00;2.00;;;;;17.76;100.00;99976.22;2063475;28;46235;-58
2023/11/01 01:28:04;;;;;;;;;4.67;3.00;;;;;17.75;100.00;99979.84;2063601;28;46649;-58
2023/11/01 01:29:05;;;;;;;;;4.00;2.67;;;;;17.75;100.00;99973.63;2063670;28;46716;-56
2023/11/01 01:30:06;;;;;;;;;0.00;0.00;;;;;17.74;100.00;99964.72;2063336;28;46691;-55
2023/11/01 01:31:06;;;;;;;;;0.25;0.25;;;;;17.74;100.00;99970.09;2064328;28;46452;-59
2023/11/01 01:32:06;;;;;;;;;2.33;2.33;;;;;17.75;100.00;99971.81;2063433;28;46714;-58
2023/11/01 01:33:07;;;;;;;;;3.33;2.67;;;;;17.75;100.00;99966.44;2063064;28;46383;-56
2023/11/01 01:34:07;;;;;;;;;2.00;2.00;;;;;17.75;100.00;99963.75;2063573;28;45406;-57
2023/11/01 01:35:08;;;;;;;;;1.67;1.00;;;;;17.77;100.00;99971.72;2063310;28;46874;-58
2023/11/01 01:36:08;;;;;;;;;3.67;2.67;;;;;17.78;100.00;99970.75;2063489;28;46617;-56
2023/11/01 01:37:08;;;;;;;;;3.67;3.67;;;;;17.77;100.00;99961.84;2063581;28;46861;-57
2023/11/01 01:38:09;;;;;;;;;3.00;2.00;;;;;17.77;100.00;99964.53;2063301;28;46443;-59
2023/11/01 01:39:09;;;;;;;;;4.00;2.33;;;;;17.79;100.00;99968.00;2063708;28;46852;-55
2023/11/01 01:40:10;;;;;;;;;1.00;1.00;;;;;17.81;100.00;99967.88;2063391;28;46323;-57
2023/11/01 01:41:10;;;;;;;;;2.00;2.00;;;;;17.75;100.00;99963.75;2062665;28;45180;-56
2023/11/01 01:42:11;;;;;;;;;2.00;1.33;;;;;17.78;100.00;99963.56;2063466;28;46838;-58
2023/11/01 01:43:20;;;;;;;;;2.00;2.00;;;;;17.81;100.00;99960.69;2063481;28;46668;-59
2023/11/01 01:44:21;;;;;;;;;2.00;2.00;;;;;17.79;100.00;99965.31;2063586;28;45454;-59
2023/11/01 01:45:21;;;;;;;;;3.00;2.00;;;;;17.80;100.00;99964.34;2062837;28;46426;-60
2023/11/01 01:46:22;;;;;;;;;0.00;0.00;;;;;17.82;100.00;99964.25;2062822;28;46129;-57
2023/11/01 01:47:23;;;;;;;;;3.75;3.75;;;;;17.81;100.00;99963.38;2063062;28;45784;-57
2023/11/01 01:48:23;;;;;;;;;2.00;2.00;;;;;17.77;100.00;99961.84;2063251;28;46143;-60
2023/11/01 01:49:24;;;;;;;;;3.00;2.00;;;;;17.80;100.00;99958.13;2063295;28;46390;-58
2023/11/01 01:50:24;;;;;;;;;2.00;2.00;;;;;17.79;100.00;99959.09;2063641;28;46220;-58
2023/11/01 01:51:26;;;;;;;;;2.00;2.00;;;;;17.82;100.00;99957.06;2063027;28;46571;-53
2023/11/01 01:52:27;;;;;;;;;2.75;2.50;;;;;17.83;100.00;99949.88;2063412;28;46635;-58
2023/11/01 01:53:28;;;;;;;;;2.00;2.00;;;;;17.82;100.00;99948.16;2063653;28;46583;-56
2023/11/01 01:54:30;;;;;;;;;1.00;1.00;;;;;17.83;100.00;99942.69;2063502;28;46558;-59
2023/11/01 01:55:31;;;;;;;;;5.75;1.50;;;;;17.81;100.00;99938.38;2062101;28;46612;-57
2023/11/01 01:56:31;;;;;;;;;4.67;3.00;;;;;17.81;100.00;99949.97;2055642;28;46553;-57
2023/11/01 01:57:32;;;;;;;;;3.00;1.67;;;;;17.80;100.00;99940.19;2055123;28;45770;-59
2023/11/01 01:58:40;;;;;;;;;6.00;4.33;;;;;17.81;100.00;99943.75;2054612;28;46186;-57
2023/11/01 01:59:40;;;;;;;;;2.25;1.25;;;;;17.80;100.00;99942.88;2054605;28;46241;-53
2023/11/01 02:00:41;;;;;;;;;2.00;2.00;;;;;17.81;100.00;99941.91;2057300;28;46593;-58
2023/11/01 02:01:43;;;;;;;;;2.50;2.50;;;;;17.81;100.00;99935.69;2063458;28;46362;-59
2023/11/01 02:02:44;;;;;;;;;2.00;2.00;;;;;17.80;100.00;99932.13;2063517;28;46864;-59
2023/11/01 02:03:45;;;;;;;;;2.75;2.50;;;;;17.82;100.00;99932.03;2063048;28;46430;-59
2023/11/01 02:04:46;;;;;;;;;1.00;1.00;;;;;17.82;100.00;99932.91;2063615;28;46446;-56
2023/11/01 02:05:47;;;;;;;;;2.50;2.25;;;;;17.83;100.00;99928.41;2063267;28;46178;-60
2023/11/01 02:06:47;;;;;;;;;4.00;2.00;;;;;17.83;100.00;99923.88;2063580;28;45862;-53
2023/11/01 02:07:48;;;;;;;;;3.00;1.00;;;;;17.84;100.00;99927.44;2063577;28;46093;-59
2023/11/01 02:08:48;;;;;;;;;0.33;0.33;;;;;17.84;100.00;99928.28;2063010;28;46892;-56
2023/11/01 02:09:49;;;;;;;;;1.67;1.67;;;;;17.83;100.00;99920.34;2062646;28;46648;-58
2023/11/01 02:10:49;;;;;;;;;2.00;0.00;;;;;17.83;100.00;99923.03;2063619;28;46106;-60
2023/11/01 02:11:49;;;;;;;;;2.00;2.00;;;;;17.81;100.00;99912.41;2063383;28;46307;-58
2023/11/01 02:12:51;;;;;;;;;2.00;2.00;;;;;17.79;100.00;99914.31;2063590;28;46337;-59
2023/11/01 02:13:51;;;;;;;;;3.75;3.00;;;;;17.79;100.00;99911.63;2063568;28;47156;-57
2023/11/01 02:14:52;;;;;;;;;1.33;1.00;;;;;17.82;100.00;99915.94;2063190;28;46578;-58
2023/11/01 02:15:52;;;;;;;;;2.00;2.00;;;;;17.85;100.00;99911.22;2063358;28;46732;-58
2023/11/01 02:16:52;;;;;;;;;2.00;2.00;;;;;17.82;100.00;99913.25;2062953;28;46699;-54
2023/11/01 02:17:53;;;;;;;;;1.00;0.33;;;;;17.80;100.00;99909.81;2063395;28;45963;-58
2023/11/01 02:18:53;;;;;;;;;2.00;1.00;;;;;17.81;100.00;99912.41;2063464;28;46281;-53
2023/11/01 02:19:53;;;;;;;;;4.67;1.00;;;;;17.80;100.00;99916.03;2062840;28;46045;-59
2023/11/01 02:20:54;;;;;;;;;1.67;1.67;;;;;17.79;100.00;99906.25;2054686;28;46479;-59
2023/11/01 02:21:55;;;;;;;;;1.00;0.00;;;;;17.78;100.00;99907.19;2059280;28;46244;-55
2023/11/01 02:22:55;;;;;;;;;2.67;1.00;;;;;17.78;100.00;99895.59;2063685;28;46688;-55
2023/11/01 02:23:57;;;;;;;;;3.33;2.33;;;;;17.78;100.00;99901.81;2063289;28;46809;-58
2023/11/01 02:24:58;;;;;;;;;2.25;2.25;;;;;17.78;100.00;99899.16;2063151;28;47197;-56
2023/11/01 02:25:58;;;;;;;;;1.33;1.33;;;;;17.76;100.00;99898.38;2104361;28;46603;-60
2023/11/01 02:27:00;;;;;;;;;3.33;1.33;;;;;17.77;100.00;99896.56;2104901;28;46163;-57
2023/11/01 02:28:03;;;;;;;;;1.00;1.00;;;;;17.76;100.00;99893.03;2104822;28;46612;-56
2023/11/01 02:29:03;;;;;;;;;1.00;1.00;;;;;17.74;100.00;99894.94;2104983;28;46576;-56
2023/11/01 02:30:05;;;;;;;;;2.67;2.67;;;;;17.75;100.00;99885.94;2104924;28;47176;-59
2023/11/01 02:31:06;;;;;;;;;1.25;1.25;;;;;17.77;100.00;99889.38;2105149;28;46389;-54
2023/11/01 02:32:08;;;;;;;;;1.50;1.25;;;;;17.74;100.00;99878.84;2104867;28;46400;-58
2023/11/01 02:33:08;;;;;;;;;1.00;1.00;;;;;17.76;100.00;99884.09;2105036;28;46699;-60
2023/11/01 02:34:08;;;;;;;;;3.00;2.00;;;;;17.76;100.00;99886.78;2104722;28;46825;-59
2023/11/01 02:35:09;;;;;;;;;2.00;2.00;;;;;17.75;100.00;99882.38;2104780;28;46028;-59
2023/11/01 02:36:09;;;;;;;;;0.33;0.33;;;;;17.73;100.00;99876.25;2104878;28;45621;-61
2023/11/01 02:37:09;;;;;;;;;3.67;2.67;;;;;17.72;100.00;99874.53;2104535;27;46271;-57
2023/11/01 02:38:11;;;;;;;;;2.33;2.33;;;;;17.70;100.00;99871.09;2105122;28;45100;-58
2023/11/01 02:39:11;;;;;;;;;2.67;2.00;;;;;17.67;100.00;99876.63;2105165;27;46490;-57
2023/11/01 02:40:12;;;;;;;;;1.67;1.00;;;;;17.66;100.00;99870.41;2104786;28;46585;-59
2023/11/01 02:41:14;;;;;;;;;2.67;1.67;;;;;17.66;100.00;99870.41;2104675;28;46986;-58
2023/11/01 02:42:14;;;;;;;;;2.00;2.00;;;;;17.64;100.00;99867.81;2105477;28;45622;-59
2023/11/01 02:43:16;;;;;;;;;2.67;1.33;;;;;17.64;100.00;99862.44;2095924;28;46216;-59
2023/11/01 02:44:16;;;;;;;;;4.25;3.75;;;;;17.68;100.00;99863.13;2096556;28;46474;-58
2023/11/01 02:45:17;;;;;;;;;5.00;2.33;;;;;17.70;100.00;99863.06;2104693;28;46287;-58
2023/11/01 02:46:17;;;;;;;;;1.67;1.67;;;;;17.71;100.00;99865.63;2104817;28;46331;-59
2023/11/01 02:47:17;;;;;;;;;1.33;1.33;;;;;17.72;100.00;99858.44;2103983;28;46327;-57
2023/11/01 02:48:17;;;;;;;;;2.00;1.00;;;;;17.72;100.00;99853.06;2104585;28;46288;-59
2023/11/01 02:49:18;;;;;;;;;2.67;2.00;;;;;17.71;100.00;99857.59;2104843;28;46683;-57
2023/11/01 02:50:21;;;;;;;;;2.67;1.67;;;;;17.71;100.00;99857.59;2104673;28;46166;-54
2023/11/01 02:51:21;;;;;;;;;3.25;2.75;;;;;17.71;100.00;99849.53;2105201;28;45528;-58
2023/11/01 02:52:21;;;;;;;;;2.67;0.67;;;;;17.70;100.00;99849.63;2104643;28;46544;-58
2023/11/01 02:53:22;;;;;;;;;0.33;0.33;;;;;17.71;100.00;99841.47;2104892;28;46050;-55
2023/11/01 02:54:22;;;;;;;;;2.00;2.00;;;;;17.72;100.00;99848.56;2104866;28;46578;-56
2023/11/01 02:55:22;;;;;;;;;3.33;2.33;;;;;17.72;100.00;99843.19;2104433;28;46867;-59
2023/11/01 02:56:23;;;;;;;;;1.67;1.67;;;;;17.73;100.00;99842.25;2104247;28;46333;-59
2023/11/01 02:57:23;;;;;;;;;1.00;0.33;;;;;17.71;100.00;99840.63;2095423;28;45245;-59
2023/11/01 02:58:24;;;;;;;;;4.00;2.00;;;;;17.71;100.00;99832.56;2063164;28;46727;-55
2023/11/01 02:59:25;;;;;;;;;2.00;2.00;;;;;17.71;100.00;99841.47;2063288;28;46424;-57
2023/11/01 03:00:25;;;;;;;;;2.67;1.00;;;;;17.71;100.00;99833.44;2062885;28;46239;-57
2023/11/01 03:01:26;;;;;;;;;2.00;2.00;;;;;17.72;100.00;99828.94;2063171;28;46319;-59
2023/11/01 03:02:26;;;;;;;;;0.00;0.00;;;;;17.74;100.00;99840.41;2063106;28;46374;-59
2023/11/01 03:03:28;;;;;;;;;2.00;2.00;;;;;17.72;100.00;99829.78;2062913;28;46745;-58
2023/11/01 03:04:29;;;;;;;;;2.75;1.25;;;;;17.72;100.00;99828.94;2057846;28;46456;-55
2023/11/01 03:05:29;;;;;;;;;1.00;1.00;;;;;17.70;100.00;99826.34;2063701;28;45993;-57
2023/11/01 03:06:30;;;;;;;;;5.00;3.67;;;;;17.71;100.00;99820.00;2062701;28;46695;-56
2023/11/01 03:07:30;;;;;;;;;3.33;2.00;;;;;17.71;100.00;99827.22;2062734;28;46559;-58
2023/11/01 03:08:31;;;;;;;;;3.00;3.00;;;;;17.69;100.00;99816.56;2062580;28;46857;-59
2023/11/01 03:09:31;;;;;;;;;2.00;1.00;;;;;17.68;100.00;99824.69;2063376;28;46149;-60
2023/11/01 03:10:32;;;;;;;;;1.00;1.00;;;;;17.65;100.00;99815.00;2062935;28;46683;-59
2023/11/01 03:11:32;;;;;;;;;4.33;2.67;;;;;17.61;100.00;99816.16;2063517;28;46499;-60
2023/11/01 03:12:32;;;;;;;;;3.67;1.67;;;;;17.57;100.00;99820.88;2104081;28;46644;-60
2023/11/01 03:13:32;;;;;;;;;2.00;2.00;;;;;17.63;100.00;99819.59;2095718;28;46458;-59
2023/11/01 03:14:33;;;;;;;;;2.33;2.33;;;;;17.63;100.00;99822.28;2096085;28;46274;-56
2023/11/01 03:15:37;;;;;;;;;4.33;2.00;;;;;17.65;100.00;99825.72;2104842;28;45429;-57
2023/11/01 03:16:37;;;;;;;;;4.50;1.50;;;;;17.64;100.00;99821.31;2104689;28;46741;-54
2023/11/01 03:17:39;;;;;;;;;3.33;2.00;;;;;17.62;100.00;99815.22;2104452;28;46435;-58
2023/11/01 03:18:39;;;;;;;;;3.75;1.50;;;;;17.59;100.00;99821.63;2104706;28;46737;-57
2023/11/01 03:19:40;;;;;;;;;2.67;2.67;;;;;17.59;100.00;99813.59;2104852;28;46426;-58
2023/11/01 03:20:40;;;;;;;;;1.67;1.67;;;;;17.58;100.00;99811.88;2104256;28;46625;-57
2023/11/01 03:21:41;;;;;;;;;4.67;3.33;;;;;17.58;100.00;99813.69;2104859;28;46166;-58
2023/11/01 03:22:42;;;;;;;;;5.00;2.00;;;;;17.60;100.00;99822.50;2104190;28;46913;-58
2023/11/01 03:23:42;;;;;;;;;3.00;1.67;;;;;17.61;100.00;99810.81;2104769;28;46356;-56
2023/11/01 03:24:42;;;;;;;;;3.00;1.00;;;;;17.62;100.00;99809.84;2105162;28;46806;-57
2023/11/01 03:25:43;;;;;;;;;1.00;1.00;;;;;17.62;100.00;99813.38;2096809;28;46181;-59
2023/11/01 03:26:43;;;;;;;;;2.67;1.67;;;;;17.63;100.00;99815.09;2096517;28;46521;-59
2023/11/01 03:27:43;;;;;;;;;3.67;3.67;;;;;17.62;100.00;99809.84;2104834;28;46198;-56
2023/11/01 03:28:45;;;;;;;;;3.00;3.00;;;;;17.63;100.00;99812.41;2104693;28;45219;-58
2023/11/01 03:29:45;;;;;;;;;3.50;1.75;;;;;17.64;100.00;99806.09;2104473;28;46760;-58
2023/11/01 03:30:45;;;;;;;;;2.00;1.00;;;;;17.64;100.00;99805.22;2096241;28;46269;-56
2023/11/01 03:31:46;;;;;;;;;3.33;2.67;;;;;17.64;100.00;99802.53;2087479;28;46264;-59
2023/11/01 03:32:47;;;;;;;;;2.50;2.50;;;;;17.65;100.00;99806.94;2096500;28;46490;-59
2023/11/01 03:33:47;;;;;;;;;4.33;3.00;;;;;17.64;100.00;99806.09;2096762;28;46281;-60
2023/11/01 03:34:48;;;;;;;;;1.67;1.67;;;;;17.65;100.00;99796.22;2096010;28;46692;-58
2023/11/01 03:35:48;;;;;;;;;4.00;4.00;;;;;17.65;100.00;99798.91;2095856;28;46609;-57
2023/11/01 03:36:49;;;;;;;;;2.00;2.00;;;;;17.64;100.00;99795.34;2095606;28;46329;-59
2023/11/01 03:37:49;;;;;;;;;4.00;3.00;;;;;17.63;100.00;99796.31;2095224;28;46291;-59
2023/11/01 03:38:50;;;;;;;;;3.00;1.67;;;;;17.63;100.00;99799.00;2104672;28;45900;-58
2023/11/01 03:39:50;;;;;;;;;2.67;1.67;;;;;17.65;100.00;99799.75;2103904;28;46515;-59
2023/11/01 03:40:50;;;;;;;;;2.00;2.00;;;;;17.64;100.00;99789.13;2104893;28;46806;-59
2023/11/01 03:41:51;;;;;;;;;3.33;3.00;;;;;17.61;100.00;99782.16;2096124;28;46957;-58
2023/11/01 03:42:52;;;;;;;;;3.33;2.33;;;;;17.62;100.00;99780.31;2096087;28;45923;-54
2023/11/01 03:43:52;;;;;;;;;4.00;2.33;;;;;17.62;100.00;99786.56;2099582;28;47082;-58
2023/11/01 03:44:52;;;;;;;;;3.00;2.67;;;;;17.63;100.00;99782.91;2063016;28;46320;-56
2023/11/01 03:45:52;;;;;;;;;2.33;1.00;;;;;17.63;100.00;99782.91;2062692;28;45486;-59
2023/11/01 03:46:53;;;;;;;;;2.00;2.00;;;;;17.62;100.00;99777.66;2062867;28;47634;-58
2023/11/01 03:47:53;;;;;;;;;2.00;2.00;;;;;17.62;100.00;99777.66;2095673;28;46585;-56
2023/11/01 03:48:53;;;;;;;;;3.00;3.00;;;;;17.62;100.00;99783.88;2096583;28;45443;-59
2023/11/01 03:49:54;;;;;;;;;0.00;0.00;;;;;17.61;100.00;99782.16;2063065;28;46384;-60
2023/11/01 03:50:54;;;;;;;;;3.00;2.33;;;;;17.61;100.00;99778.59;2061235;28;46313;-59
2023/11/01 03:51:59;;;;;;;;;2.33;2.33;;;;;17.60;100.00;99779.56;2054003;28;46565;-56
2023/11/01 03:52:59;;;;;;;;;4.25;2.25;;;;;17.58;100.00;99785.03;2054603;28;46947;-59
2023/11/01 03:53:59;;;;;;;;;2.33;1.33;;;;;17.57;100.00;99779.78;2054194;28;46456;-57
2023/11/01 03:55:00;;;;;;;;;2.67;2.67;;;;;17.56;100.00;99781.59;2062123;28;46374;-57
2023/11/01 03:56:03;;;;;;;;;4.00;4.00;;;;;17.57;100.00;99779.78;2062671;28;46888;-61
2023/11/01 03:57:03;;;;;;;;;1.50;1.50;;;;;17.56;100.00;99780.75;2063231;28;46605;-55
2023/11/01 03:58:04;;;;;;;;;2.00;2.00;;;;;17.56;100.00;99781.59;2062456;28;46249;-58
2023/11/01 03:59:04;;;;;;;;;2.00;2.00;;;;;17.56;100.00;99776.25;2062445;28;46330;-57
2023/11/01 04:00:05;;;;;;;;;2.00;2.00;;;;;17.56;100.00;99775.38;2062484;28;46280;-59
2023/11/01 04:01:05;;;;;;;;;1.50;1.50;;;;;17.56;100.00;99776.25;2062883;28;46691;-58
2023/11/01 04:02:06;;;;;;;;;3.00;3.00;;;;;17.54;100.00;99770.13;2062986;28;46026;-60
2023/11/01 04:03:07;;;;;;;;;3.00;1.00;;;;;17.52;100.00;99758.59;2062624;28;46209;-57
2023/11/01 04:04:07;;;;;;;;;2.25;2.25;;;;;17.52;100.00;99771.16;2062179;28;46749;-57
2023/11/01 04:05:08;;;;;;;;;3.00;3.00;;;;;17.49;100.00;99766.00;2062888;28;46402;-58
2023/11/01 04:06:09;;;;;;;;;2.33;2.00;;;;;17.50;100.00;99760.53;2062962;28;45979;-56
2023/11/01 04:07:09;;;;;;;;;2.50;2.50;;;;;17.49;100.00;99756.13;2061813;28;46967;-58
2023/11/01 04:08:09;;;;;;;;;2.33;1.67;;;;;17.49;100.00;99757.94;2062419;28;46551;-59
2023/11/01 04:09:13;;;;;;;;;1.67;1.67;;;;;17.47;100.00;99754.50;2062844;28;46459;-61
2023/11/01 04:10:13;;;;;;;;;3.50;3.50;;;;;17.45;100.00;99751.94;2063098;28;46192;-58
2023/11/01 04:11:13;;;;;;;;;4.00;1.67;;;;;17.44;100.00;99750.22;2062564;28;45592;-55
2023/11/01 04:12:14;;;;;;;;;4.00;2.67;;;;;17.43;100.00;99750.31;2062318;28;46222;-58
2023/11/01 04:13:14;;;;;;;;;2.00;2.00;;;;;17.42;100.00;99746.78;2062394;28;46614;-58
2023/11/01 04:14:15;;;;;;;;;1.67;1.67;;;;;17.41;100.00;99752.25;2062920;28;46869;-58
2023/11/01 04:15:16;;;;;;;;;1.33;1.33;;;;;17.39;100.00;99749.63;2062756;28;46271;-58
2023/11/01 04:16:17;;;;;;;;;3.00;2.25;;;;;17.41;100.00;99749.56;2062845;28;46430;-59
2023/11/01 04:17:18;;;;;;;;;2.25;0.25;;;;;17.41;100.00;99733.47;2062358;28;46785;-59
2023/11/01 04:18:19;;;;;;;;;5.50;3.00;;;;;17.41;100.00;99746.88;2062099;28;45793;-57
2023/11/01 04:19:19;;;;;;;;;2.33;2.33;;;;;17.40;100.00;99742.44;2054104;28;46495;-60
2023/11/01 04:20:19;;;;;;;;;3.00;3.00;;;;;17.40;100.00;99740.63;2054845;28;46513;-54
2023/11/01 04:21:20;;;;;;;;;2.00;2.00;;;;;17.41;100.00;99741.50;2055049;28;45568;-59
2023/11/01 04:22:21;;;;;;;;;4.00;2.00;;;;;17.40;100.00;99745.13;2062342;28;46384;-58
2023/11/01 04:23:22;;;;;;;;;3.00;2.25;;;;;17.39;100.00;99733.53;2062632;28;45776;-55
2023/11/01 04:24:23;;;;;;;;;4.00;2.00;;;;;17.38;100.00;99737.19;2062944;28;46965;-58
2023/11/01 04:25:24;;;;;;;;;3.75;2.75;;;;;17.38;100.00;99741.69;2062354;28;46399;-59
2023/11/01 04:26:24;;;;;;;;;3.00;1.33;;;;;17.37;100.00;99738.16;2062727;28;45387;-57
2023/11/01 04:27:24;;;;;;;;;4.33;3.33;;;;;17.35;100.00;99735.56;2062814;28;46732;-59
2023/11/01 04:28:25;;;;;;;;;1.00;1.00;;;;;17.35;100.00;99732.03;2062633;28;46304;-57
2023/11/01 04:29:26;;;;;;;;;3.00;2.00;;;;;17.34;100.00;99731.16;2062796;28;46334;-59
2023/11/01 04:30:26;;;;;;;;;3.67;3.00;;;;;17.33;100.00;99734.81;2063012;28;46214;-57
2023/11/01 04:31:26;;;;;;;;;3.00;3.00;;;;;17.33;100.00;99731.28;2061029;28;46400;-60
2023/11/01 04:32:28;;;;;;;;;4.67;3.00;;;;;17.34;100.00;99724.94;2054442;28;46485;-59
2023/11/01 04:33:28;;;;;;;;;1.50;1.50;;;;;17.35;100.00;99726.66;2059703;28;46499;-57
2023/11/01 04:34:28;;;;;;;;;3.33;3.33;;;;;17.33;100.00;99721.41;2062874;28;46778;-58
2023/11/01 04:35:29;;;;;;;;;1.67;1.67;;;;;17.33;100.00;99718.72;2062447;28;46366;-57
2023/11/01 04:36:29;;;;;;;;;1.67;1.67;;;;;17.32;100.00;99708.97;2063030;28;46585;-54
2023/11/01 04:37:30;;;;;;;;;3.00;3.00;;;;;17.31;100.00;99709.06;2062910;28;46236;-59
2023/11/01 04:38:30;;;;;;;;;4.50;3.50;;;;;17.30;100.00;99705.53;2061851;28;46632;-60
2023/11/01 04:39:31;;;;;;;;;2.00;1.33;;;;;17.30;100.00;99708.22;2062015;28;45738;-59
2023/11/01 04:40:31;;;;;;;;;2.00;2.00;;;;;17.30;100.00;99708.22;2063028;28;46024;-58
2023/11/01 04:41:31;;;;;;;;;1.00;1.00;;;;;17.28;100.00;99704.78;2063078;28;46751;-59